Cable Innovator — MVEP4 — position and weather

sailwx.info

Track history (hours):
 
Tides and Currents Weather Stations Pressure Air Temp Water Temp Dewpoint Dewpoint Depression Visibility Wind Speed Wind Dir Waves Ship Positions

Cable Innovator

Last reported at 2014-Jul-26 20:13 UTC. Time now 2014-Jul-29 10:50 UTC.
Position N 58°38' E 001°49'.

Length 145.5 m; beam 24 m; draft 8.3 m.

Type: Cargo ship. MMSI: 233933000.

Date/timePositionNaut miles runAvg speedWind from/ knotsBaromVisibWave heightAir tempDewpointWater temp
2014-Jul-26 20:13N 58°38' E 001°49'0 0.2
2014-Jul-26 19:30N 58°38' E 001°49'0 0.0
2014-Jul-26 18:33N 58°38' E 001°49'0 0.2
2014-Jul-26 16:28N 58°37' E 001°48'0 0.1
2014-Jul-26 14:32N 58°37' E 001°48'0 0.1
2014-Jul-26 13:33N 58°37' E 001°48'0 0.0
2014-Jul-26 12:33N 58°37' E 001°48'0 0.1
2014-Jul-26 11:33N 58°37' E 001°48'0 0.1
2014-Jul-26 10:33N 58°37' E 001°48'0 0.0
2014-Jul-26 09:33N 58°37' E 001°48'0 0.0
2014-Jul-26 08:33N 58°37' E 001°48'0 0.0
2014-Jul-26 07:08N 58°37' E 001°48'0 0.0
2014-Jul-26 05:31N 58°37' E 001°48'0 0.0
2014-Jul-26 04:33N 58°37' E 001°48'0 0.0
2014-Jul-26 03:08N 58°37' E 001°48'0 0.0
2014-Jul-26 02:32N 58°37' E 001°48'0 0.0
2014-Jul-26 01:33N 58°37' E 001°48'0 0.0
2014-Jul-26 00:33N 58°37' E 001°48'0 0.0
2014-Jul-25 23:33N 58°37' E 001°48'0 0.0
2014-Jul-25 22:33N 58°37' E 001°48'0 0.0
2014-Jul-25 21:33N 58°37' E 001°48'0 0.0
2014-Jul-25 20:33N 58°37' E 001°48'0 0.0
2014-Jul-25 19:33N 58°37' E 001°48'0 0.0
2014-Jul-25 18:33N 58°37' E 001°48'0 0.0
2014-Jul-25 17:31N 58°37' E 001°48'0 0.2
2014-Jul-25 16:26N 58°37' E 001°49'0 0.1
2014-Jul-25 14:33N 58°37' E 001°48'0 0.1
2014-Jul-25 13:33N 58°37' E 001°48'0 0.1
2014-Jul-25 12:33N 58°37' E 001°49'0 0.0
2014-Jul-25 11:13N 58°37' E 001°49'0 0.1
2014-Jul-25 09:17N 58°37' E 001°49'0 0.1
2014-Jul-25 08:33N 58°38' E 001°49'0 0.1
2014-Jul-25 07:33N 58°38' E 001°49'0 0.0
2014-Jul-25 06:06N 58°38' E 001°49'0 0.1
2014-Jul-25 04:20N 58°37' E 001°49'0 0.1
2014-Jul-25 02:23N 58°37' E 001°49'11 1.1
2014-Jul-24 16:33N 58°41' E 002°08'3 1.0
2014-Jul-24 13:08N 58°42' E 002°14'0 0.1
2014-Jul-24 12:32N 58°42' E 002°14'0 0.0
2014-Jul-24 11:33N 58°42' E 002°14'4 3.9
2014-Jul-24 10:33N 58°41' E 002°06'0 0.1
2014-Jul-24 09:33N 58°41' E 002°07'0 0.1
2014-Jul-24 08:33N 58°41' E 002°07'0 0.1
2014-Jul-24 07:32N 58°41' E 002°07'0 0.0
2014-Jul-24 06:33N 58°41' E 002°07'0 0.0
2014-Jul-24 05:32N 58°41' E 002°07'0 0.1
2014-Jul-24 04:32N 58°41' E 002°07'0 0.1
2014-Jul-24 03:30N 58°41' E 002°07'0 0.1
2014-Jul-24 02:30N 58°41' E 002°07'0 0.1
2014-Jul-24 01:22N 58°41' E 002°08'2 1.9
2014-Jul-24 00:33N 58°42' E 002°10'2 1.7
2014-Jul-23 23:32N 58°42' E 002°14'0 0.0
2014-Jul-23 22:34N 58°42' E 002°14'0 0.0
2014-Jul-23 21:31N 58°42' E 002°14'1 0.6
2014-Jul-23 20:33N 58°42' E 002°13'0 0.0
2014-Jul-23 19:33N 58°42' E 002°13'1 0.6
2014-Jul-23 18:33N 58°42' E 002°14'0 0.0
2014-Jul-23 17:24N 58°42' E 002°14'0 0.0
2014-Jul-23 16:33N 58°42' E 002°14'0 0.1
2014-Jul-23 15:29N 58°42' E 002°14'0 0.1
2014-Jul-23 13:30N 58°42' E 002°14'0 0.0
2014-Jul-23 12:29N 58°42' E 002°14'0 0.0
2014-Jul-23 11:33N 58°42' E 002°14'0 0.0
2014-Jul-23 10:13N 58°42' E 002°14'0 0.1
2014-Jul-23 07:11N 58°42' E 002°14'0 0.0
2014-Jul-23 05:33N 58°42' E 002°14'0 0.0
2014-Jul-23 04:09N 58°42' E 002°14'0 0.0
2014-Jul-23 03:22N 58°42' E 002°14'0 0.0
2014-Jul-23 02:24N 58°42' E 002°14'  
Track history (hours):
 
Tides and Currents Weather Stations Pressure Air Temp Water Temp Dewpoint Dewpoint Depression Visibility Wind Speed Wind Dir Waves Ship Positions

Cable Innovator

Last reported at 2014-Jul-26 20:13 UTC. Time now 2014-Jul-29 10:50 UTC.
Position N 58°38' E 001°49'.

Length 145.5 m; beam 24 m; draft 8.3 m.

Type: Cargo ship. MMSI: 233933000.

Date/timePositionNaut miles runAvg speedWind from/ knotsBaromVisibWave heightAir tempDewpointWater temp
2014-Jul-26 20:13N 58°38' E 001°49'0 0.2
2014-Jul-26 19:30N 58°38' E 001°49'0 0.0
2014-Jul-26 18:33N 58°38' E 001°49'0 0.2
2014-Jul-26 16:28N 58°37' E 001°48'0 0.1
2014-Jul-26 14:32N 58°37' E 001°48'0 0.1
2014-Jul-26 13:33N 58°37' E 001°48'0 0.0
2014-Jul-26 12:33N 58°37' E 001°48'0 0.1
2014-Jul-26 11:33N 58°37' E 001°48'0 0.1
2014-Jul-26 10:33N 58°37' E 001°48'0 0.0
2014-Jul-26 09:33N 58°37' E 001°48'0 0.0
2014-Jul-26 08:33N 58°37' E 001°48'0 0.0
2014-Jul-26 07:08N 58°37' E 001°48'0 0.0
2014-Jul-26 05:31N 58°37' E 001°48'0 0.0
2014-Jul-26 04:33N 58°37' E 001°48'0 0.0
2014-Jul-26 03:08N 58°37' E 001°48'0 0.0
2014-Jul-26 02:32N 58°37' E 001°48'0 0.0
2014-Jul-26 01:33N 58°37' E 001°48'0 0.0
2014-Jul-26 00:33N 58°37' E 001°48'0 0.0
2014-Jul-25 23:33N 58°37' E 001°48'0 0.0
2014-Jul-25 22:33N 58°37' E 001°48'0 0.0
2014-Jul-25 21:33N 58°37' E 001°48'0 0.0
2014-Jul-25 20:33N 58°37' E 001°48'0 0.0
2014-Jul-25 19:33N 58°37' E 001°48'0 0.0
2014-Jul-25 18:33N 58°37' E 001°48'0 0.0
2014-Jul-25 17:31N 58°37' E 001°48'0 0.2
2014-Jul-25 16:26N 58°37' E 001°49'0 0.1
2014-Jul-25 14:33N 58°37' E 001°48'0 0.1
2014-Jul-25 13:33N 58°37' E 001°48'0 0.1
2014-Jul-25 12:33N 58°37' E 001°49'0 0.0
2014-Jul-25 11:13N 58°37' E 001°49'0 0.1
2014-Jul-25 09:17N 58°37' E 001°49'0 0.1
2014-Jul-25 08:33N 58°38' E 001°49'0 0.1
2014-Jul-25 07:33N 58°38' E 001°49'0 0.0
2014-Jul-25 06:06N 58°38' E 001°49'0 0.1
2014-Jul-25 04:20N 58°37' E 001°49'0 0.1
2014-Jul-25 02:23N 58°37' E 001°49'11 1.1
2014-Jul-24 16:33N 58°41' E 002°08'3 1.0
2014-Jul-24 13:08N 58°42' E 002°14'0 0.1
2014-Jul-24 12:32N 58°42' E 002°14'0 0.0
2014-Jul-24 11:33N 58°42' E 002°14'4 3.9
2014-Jul-24 10:33N 58°41' E 002°06'0 0.1
2014-Jul-24 09:33N 58°41' E 002°07'0 0.1
2014-Jul-24 08:33N 58°41' E 002°07'0 0.1
2014-Jul-24 07:32N 58°41' E 002°07'0 0.0
2014-Jul-24 06:33N 58°41' E 002°07'0 0.0
2014-Jul-24 05:32N 58°41' E 002°07'0 0.1
2014-Jul-24 04:32N 58°41' E 002°07'0 0.1
2014-Jul-24 03:30N 58°41' E 002°07'0 0.1
2014-Jul-24 02:30N 58°41' E 002°07'0 0.1
2014-Jul-24 01:22N 58°41' E 002°08'2 1.9
2014-Jul-24 00:33N 58°42' E 002°10'2 1.7
2014-Jul-23 23:32N 58°42' E 002°14'0 0.0
2014-Jul-23 22:34N 58°42' E 002°14'0 0.0
2014-Jul-23 21:31N 58°42' E 002°14'1 0.6
2014-Jul-23 20:33N 58°42' E 002°13'0 0.0
2014-Jul-23 19:33N 58°42' E 002°13'1 0.6
2014-Jul-23 18:33N 58°42' E 002°14'0 0.0
2014-Jul-23 17:24N 58°42' E 002°14'0 0.0
2014-Jul-23 16:33N 58°42' E 002°14'0 0.1
2014-Jul-23 15:29N 58°42' E 002°14'0 0.1
2014-Jul-23 13:30N 58°42' E 002°14'0 0.0
2014-Jul-23 12:29N 58°42' E 002°14'0 0.0
2014-Jul-23 11:33N 58°42' E 002°14'0 0.0
2014-Jul-23 10:13N 58°42' E 002°14'0 0.1
2014-Jul-23 07:11N 58°42' E 002°14'0 0.0
2014-Jul-23 05:33N 58°42' E 002°14'0 0.0
2014-Jul-23 04:09N 58°42' E 002°14'0 0.0
2014-Jul-23 03:22N 58°42' E 002°14'0 0.0
2014-Jul-23 02:24N 58°42' E 002°14'  

Dump ship's entire track history